Time;durP1;ratioP1;P1;durP2;ratioP2;P2;SDS_P1;SDS_P2;PMS_P1;PMS_P2;Temp;Humidity;BMP_temperature;BMP_pressure;BME280_temperature;BME280_humidity;BME280_pressure;Samples;Min_cycle;Max_cycle;Signal;HPM_P1;HPM_P2
2022/07/06 00:00:37;;;;;;;2.70;2.50;;;;;;;16.75;94.56;96712.68;107467;1268;71777;-80
2022/07/06 00:03:09;;;;;;;2.80;2.50;;;;;;;16.70;94.43;96715.89;107655;1268;69850;-80
2022/07/06 00:05:41;;;;;;;2.90;2.60;;;;;;;16.67;94.40;96716.48;107887;1268;53433;-80
2022/07/06 00:08:12;;;;;;;3.00;2.60;;;;;;;16.60;94.21;96715.10;107853;1268;71378;-80
2022/07/06 00:10:44;;;;;;;2.40;2.20;;;;;;;16.53;94.01;96717.15;107921;1267;30778;-79
2022/07/06 00:13:15;;;;;;;3.20;2.70;;;;;;;16.46;93.72;96717.77;107572;1268;32931;-79
2022/07/06 00:15:47;;;;;;;2.50;2.20;;;;;;;16.41;93.62;96724.61;107442;1268;129987;-80
2022/07/06 00:18:19;;;;;;;2.70;2.50;;;;;;;16.37;93.58;96724.75;107880;1270;46625;-80
2022/07/06 00:20:51;;;;;;;2.50;2.30;;;;;;;16.33;93.65;96724.73;107888;1268;82784;-79
2022/07/06 00:23:31;;;;;;;2.80;2.30;;;;;;;16.30;93.65;96722.98;107964;1268;59898;-79
2022/07/06 00:26:04;;;;;;;2.80;2.50;;;;;;;16.27;93.62;96724.59;107973;1268;39602;-80
2022/07/06 00:28:35;;;;;;;2.90;2.60;;;;;;;16.26;93.78;96722.20;107924;1268;32559;-79
2022/07/06 00:31:08;;;;;;;3.10;2.80;;;;;;;16.23;93.75;96725.19;107752;1268;86595;-78
2022/07/06 00:33:39;;;;;;;3.50;2.70;;;;;;;16.22;93.84;96719.55;107526;1268;59033;-79
2022/07/06 00:36:11;;;;;;;2.90;2.70;;;;;;;16.20;93.91;96721.70;107591;1268;74495;-79
2022/07/06 00:38:43;;;;;;;2.50;2.30;;;;;;;16.21;93.93;96720.97;107928;1268;38694;-79
2022/07/06 00:41:15;;;;;;;2.60;2.40;;;;;;;16.23;93.98;96720.84;107900;1267;34354;-80
2022/07/06 00:43:55;;;;;;;2.80;2.60;;;;;;;16.24;93.92;96722.55;107814;1270;37204;-80
2022/07/06 00:46:32;;;;;;;3.20;2.80;;;;;;;16.27;94.11;96721.60;107543;1268;113569;-80
2022/07/06 00:49:03;;;;;;;3.20;2.70;;;;;;;16.27;94.12;96721.70;107876;1268;33863;-79
2022/07/06 00:51:37;;;;;;;3.40;3.10;;;;;;;16.27;94.05;96719.24;107926;1268;30546;-79
2022/07/06 00:54:10;;;;;;;2.90;2.70;;;;;;;16.25;93.92;96717.27;107638;1268;42755;-79
2022/07/06 00:56:42;;;;;;;3.30;3.00;;;;;;;16.22;93.84;96718.52;107936;1268;33064;-79
2022/07/06 00:59:13;;;;;;;3.30;2.90;;;;;;;16.19;94.08;96716.21;107644;1268;110012;-80
2022/07/06 01:01:45;;;;;;;3.50;3.20;;;;;;;16.17;94.26;96722.61;107628;1268;91917;-80
2022/07/06 01:04:16;;;;;;;3.20;2.80;;;;;;;16.19;94.44;96716.75;107685;1268;34296;-80
2022/07/06 01:06:48;;;;;;;3.50;2.70;;;;;;;16.20;94.52;96717.48;107873;1269;40294;-80
2022/07/06 01:09:19;;;;;;;2.90;2.60;;;;;;;16.19;94.54;96716.36;107893;1271;37147;-79
2022/07/06 01:11:51;;;;;;;2.90;2.70;;;;;;;16.16;94.74;96708.36;106587;1268;1777833;-80
2022/07/06 01:14:23;;;;;;;3.50;2.70;;;;;;;16.13;94.88;96705.67;107982;1268;48724;-80
2022/07/06 01:16:54;;;;;;;3.00;2.70;;;;;;;16.13;94.95;96709.27;107881;1268;80953;-80
2022/07/06 01:19:25;;;;;;;2.90;2.70;;;;;;;16.13;95.00;96712.56;107890;1268;38206;-80
2022/07/06 01:21:57;;;;;;;2.20;2.10;;;;;;;16.16;95.01;96718.73;107840;1270;37048;-80
2022/07/06 01:24:28;;;;;;;3.00;2.70;;;;;;;16.18;94.92;96714.84;107537;1270;128832;-80
2022/07/06 01:26:59;;;;;;;3.00;2.50;;;;;;;16.20;94.96;96720.15;107627;1268;99752;-80
2022/07/06 01:29:30;;;;;;;2.80;2.40;;;;;;;16.21;94.99;96723.65;107901;1268;35733;-80
2022/07/06 01:32:02;;;;;;;3.30;2.90;;;;;;;16.22;94.97;96722.98;107962;1268;35832;-80
2022/07/06 01:34:33;;;;;;;3.00;2.80;;;;;;;16.22;95.04;96722.92;107909;1268;55059;-80
2022/07/06 01:37:05;;;;;;;2.60;2.40;;;;;;;16.24;95.13;96723.67;107660;1268;101047;-79
2022/07/06 01:39:36;;;;;;;3.50;3.20;;;;;;;16.23;95.07;96725.50;107752;1268;82376;-81
2022/07/06 01:42:07;;;;;;;3.30;3.00;;;;;;;16.22;95.08;96721.54;107609;1268;79410;-79
2022/07/06 01:44:39;;;;;;;2.90;2.70;;;;;;;16.16;94.68;96728.58;107846;1270;35221;-80
2022/07/06 01:47:10;;;;;;;3.30;2.60;;;;;;;16.10;94.67;96731.16;107827;1270;39675;-80
2022/07/06 01:49:41;;;;;;;2.60;2.40;;;;;;;16.13;94.90;96732.36;107750;1268;57690;-81
2022/07/06 01:52:12;;;;;;;2.50;2.30;;;;;;;16.17;94.90;96730.54;107699;1268;149379;-80
2022/07/06 01:54:43;;;;;;;3.10;2.80;;;;;;;16.15;94.80;96726.20;107601;1268;50736;-80
2022/07/06 01:57:15;;;;;;;3.80;2.80;;;;;;;16.15;94.57;96732.67;107630;1268;37096;-80
2022/07/06 01:59:48;;;;;;;2.80;2.60;;;;;;;16.17;94.55;96727.39;107951;1268;34811;-80
2022/07/06 02:02:19;;;;;;;2.70;2.50;;;;;;;16.11;94.32;96728.68;107991;1268;31678;-80
2022/07/06 02:04:50;;;;;;;3.00;2.20;;;;;;;16.08;94.40;96733.17;107868;1268;73755;-79
2022/07/06 02:07:22;;;;;;;2.60;2.40;;;;;;;16.06;94.42;96730.34;107965;1268;54743;-79
2022/07/06 02:09:53;;;;;;;2.20;2.10;;;;;;;16.08;94.43;96729.65;107963;1268;40440;-80
2022/07/06 02:12:24;;;;;;;3.50;2.50;;;;;;;16.07;94.37;96724.73;107746;1270;77389;-80
2022/07/06 02:14:55;;;;;;;2.60;2.40;;;;;;;16.06;94.42;96724.08;107715;1268;46374;-79
2022/07/06 02:17:26;;;;;;;4.60;2.50;;;;;;;16.06;94.46;96726.21;107684;1268;88525;-80
2022/07/06 02:19:57;;;;;;;3.00;2.70;;;;;;;16.09;94.79;96728.90;107455;1268;77228;-80
2022/07/06 02:22:28;;;;;;;3.90;3.50;;;;;;;16.15;94.98;96731.20;107894;1268;39983;-80
2022/07/06 02:25:00;;;;;;;3.90;3.60;;;;;;;16.17;94.91;96727.16;107848;1270;71808;-80
2022/07/06 02:27:31;;;;;;;3.50;3.10;;;;;;;16.20;95.10;96729.78;107734;1270;39119;-79
2022/07/06 02:30:02;;;;;;;3.60;3.10;;;;;;;16.23;94.97;96728.23;107888;1270;39263;-80
2022/07/06 02:32:33;;;;;;;3.70;3.30;;;;;;;16.28;94.93;96731.58;107665;1270;97429;-80
2022/07/06 02:35:05;;;;;;;2.70;2.50;;;;;;;16.28;94.81;96730.13;107734;1270;85974;-80
2022/07/06 02:37:36;;;;;;;3.20;2.90;;;;;;;16.23;94.69;96728.84;107900;1267;35453;-80
2022/07/06 02:40:09;;;;;;;2.70;2.50;;;;;;;16.19;94.81;96736.02;107859;1268;50913;-80
2022/07/06 02:42:40;;;;;;;2.70;2.40;;;;;;;16.16;94.80;96739.44;107535;1270;34932;-80
2022/07/06 02:45:13;;;;;;;2.80;2.40;;;;;;;16.16;94.82;96734.91;107537;1268;88309;-79
2022/07/06 02:47:44;;;;;;;2.70;2.50;;;;;;;16.17;95.01;96734.22;107446;1268;83281;-79
2022/07/06 02:50:15;;;;;;;3.40;2.90;;;;;;;16.18;94.96;96731.73;107607;1268;60665;-79
2022/07/06 02:52:46;;;;;;;3.80;2.80;;;;;;;16.11;94.96;96737.98;107919;1268;43266;-79
2022/07/06 02:55:18;;;;;;;2.80;2.60;;;;;;;16.07;95.15;96742.23;107917;1268;40927;-80
2022/07/06 02:57:49;;;;;;;2.60;2.40;;;;;;;16.10;95.58;96740.76;107728;1268;31279;-80
2022/07/06 03:00:20;;;;;;;3.20;2.90;;;;;;;16.17;95.77;96748.94;107574;1268;58845;-80
2022/07/06 03:02:51;;;;;;;3.00;2.70;;;;;;;16.20;95.79;96749.88;107717;1268;150270;-80
2022/07/06 03:05:22;;;;;;;3.50;3.20;;;;;;;16.24;95.71;96748.92;107309;1267;94120;-80
2022/07/06 03:07:53;;;;;;;3.60;3.30;;;;;;;16.26;95.60;96750.23;107877;1268;40206;-79
2022/07/06 03:10:25;;;;;;;4.70;4.00;;;;;;;16.24;95.37;96749.67;107882;1269;34297;-79
2022/07/06 03:12:56;;;;;;;3.40;3.10;;;;;;;16.24;95.49;96755.96;107883;1268;41976;-80
2022/07/06 03:15:27;;;;;;;3.60;3.30;;;;;;;16.26;95.57;96749.70;107707;1269;97970;-79
2022/07/06 03:17:58;;;;;;;4.00;3.60;;;;;;;16.26;95.63;96750.45;107707;1270;87332;-79
2022/07/06 03:20:29;;;;;;;3.60;2.80;;;;;;;16.28;95.79;96753.02;107907;1268;32891;-79
2022/07/06 03:23:01;;;;;;;3.40;3.10;;;;;;;16.26;95.51;96755.66;107555;1268;42753;-79
2022/07/06 03:25:32;;;;;;;3.40;3.10;;;;;;;16.20;95.47;96755.30;107754;1270;88150;-79
2022/07/06 03:28:04;;;;;;;3.00;2.70;;;;;;;16.24;95.50;96752.98;107953;1268;37105;-79
2022/07/06 03:30:35;;;;;;;3.80;3.00;;;;;;;16.26;95.66;96751.38;107846;1268;79358;-79
2022/07/06 03:33:06;;;;;;;3.50;3.20;;;;;;;16.22;95.59;96753.79;107555;1267;38331;-79
2022/07/06 03:35:37;;;;;;;3.60;3.40;;;;;;;16.18;95.67;96757.95;107875;1268;35923;-79
2022/07/06 03:38:08;;;;;;;4.10;3.30;;;;;;;16.12;95.95;96756.05;107878;1268;82643;-79
2022/07/06 03:40:39;;;;;;;3.80;3.50;;;;;;;16.09;96.30;96753.16;107822;1268;32561;-79
2022/07/06 03:43:11;;;;;;;4.60;4.20;;;;;;;16.06;96.69;96754.11;107851;1268;60656;-79
2022/07/06 03:45:42;;;;;;;4.60;4.20;;;;;;;15.98;97.04;96753.27;107823;1268;78534;-79
2022/07/06 03:48:13;;;;;;;4.70;4.30;;;;;;;15.95;97.35;96756.24;107823;1270;33768;-79
2022/07/06 03:50:44;;;;;;;4.30;3.80;;;;;;;15.92;97.53;96757.13;107923;1268;32373;-79
2022/07/06 03:53:15;;;;;;;3.40;3.10;;;;;;;15.92;97.64;96755.99;107913;1268;34581;-80
2022/07/06 03:56:27;;;;;;;3.90;3.50;;;;;;;15.95;97.61;96755.17;107624;1268;99817;-80
2022/07/06 03:58:39;;;;;;;2.90;2.40;;;;;;;16.02;97.59;96756.58;107823;1268;106007;-80
2022/07/06 04:01:10;;;;;;;4.50;2.90;;;;;;;16.09;97.75;96760.61;107849;1268;34074;-80
2022/07/06 04:03:41;;;;;;;2.80;2.60;;;;;;;16.17;97.73;96765.09;107732;1270;38745;-80
2022/07/06 04:06:12;;;;;;;2.50;2.30;;;;;;;16.25;97.74;96766.33;107877;1268;46721;-80
2022/07/06 04:08:44;;;;;;;2.80;2.60;;;;;;;16.27;97.38;96770.64;107540;1268;159907;-80
2022/07/06 04:11:15;;;;;;;2.90;2.60;;;;;;;16.24;97.07;96768.11;106279;1270;1969621;-80
2022/07/06 04:13:47;;;;;;;3.00;2.70;;;;;;;16.24;97.12;96773.40;107884;1268;55782;-80
2022/07/06 04:16:18;;;;;;;2.90;2.60;;;;;;;16.22;97.17;96772.83;107371;1267;130724;-80
2022/07/06 04:18:49;;;;;;;3.40;3.10;;;;;;;16.22;96.65;96775.98;107371;1268;102327;-80
2022/07/06 04:21:20;;;;;;;3.30;3.00;;;;;;;16.21;96.34;96775.10;107488;1268;111643;-80
2022/07/06 04:23:51;;;;;;;3.30;3.00;;;;;;;16.20;96.48;96775.72;107585;1268;90184;-80
2022/07/06 04:26:22;;;;;;;3.00;2.80;;;;;;;16.21;96.65;96770.41;106323;1269;1776860;-80
2022/07/06 04:28:54;;;;;;;2.80;2.60;;;;;;;16.22;96.29;96770.91;107850;1270;37658;-80
2022/07/06 04:31:25;;;;;;;4.30;3.30;;;;;;;16.24;95.92;96774.13;107872;1268;36241;-80
2022/07/06 04:33:56;;;;;;;4.10;3.20;;;;;;;16.24;95.71;96783.48;107879;1268;66940;-80
2022/07/06 04:36:28;;;;;;;3.70;3.20;;;;;;;16.24;95.39;96788.35;107932;1268;55243;-80
2022/07/06 04:38:59;;;;;;;3.40;3.10;;;;;;;16.22;94.85;96787.35;107896;1268;67207;-80
2022/07/06 04:41:30;;;;;;;4.00;3.00;;;;;;;16.22;94.40;96789.27;107561;1268;80311;-80
2022/07/06 04:44:02;;;;;;;3.40;3.10;;;;;;;16.26;94.61;96789.08;107818;1268;96272;-80
2022/07/06 04:46:33;;;;;;;3.60;3.30;;;;;;;16.27;93.96;96790.43;107918;1268;36869;-80
2022/07/06 04:49:04;;;;;;;4.50;3.70;;;;;;;16.26;93.61;96787.32;107624;1268;39290;-80
2022/07/06 04:51:35;;;;;;;3.80;3.50;;;;;;;16.29;93.63;96797.29;107906;1267;43580;-80
2022/07/06 04:54:07;;;;;;;4.00;3.60;;;;;;;16.32;93.84;96804.05;107719;1268;105542;-80
2022/07/06 04:56:39;;;;;;;4.20;3.60;;;;;;;16.34;93.75;96802.46;107526;1268;65527;-80
2022/07/06 04:59:10;;;;;;;4.20;3.50;;;;;;;16.37;93.94;96803.28;107934;1268;35838;-80
2022/07/06 05:01:42;;;;;;;4.50;3.70;;;;;;;16.39;93.74;96804.61;107801;1267;90275;-79
2022/07/06 05:04:13;;;;;;;4.70;4.10;;;;;;;16.38;93.42;96804.70;107845;1270;35467;-80
2022/07/06 05:06:45;;;;;;;4.70;3.50;;;;;;;16.39;93.53;96808.70;107943;1268;35613;-80
2022/07/06 05:09:16;;;;;;;4.50;4.10;;;;;;;16.41;93.38;96803.54;107704;1268;43383;-78
2022/07/06 05:11:48;;;;;;;5.00;4.50;;;;;;;16.35;93.12;96803.40;107573;1268;40127;-78
2022/07/06 05:14:19;;;;;;;3.90;3.60;;;;;;;16.35;93.50;96807.94;107624;1268;34104;-78
2022/07/06 05:16:50;;;;;;;4.90;4.20;;;;;;;16.41;93.52;96805.81;107633;1268;31934;-78
2022/07/06 05:19:21;;;;;;;4.10;3.80;;;;;;;16.39;93.22;96818.71;107618;1269;52091;-78
2022/07/06 05:21:53;;;;;;;6.00;3.80;;;;;;;16.37;93.26;96821.10;107702;1269;30187;-78
2022/07/06 05:24:24;;;;;;;4.90;3.80;;;;;;;16.39;93.42;96823.78;107538;1270;53719;-78
2022/07/06 05:26:55;;;;;;;4.50;4.10;;;;;;;16.39;93.31;96821.64;107599;1268;53627;-78
2022/07/06 05:29:27;;;;;;;5.20;4.30;;;;;;;16.45;93.74;96824.36;107651;1268;34237;-78
2022/07/06 05:31:58;;;;;;;4.90;4.40;;;;;;;16.50;93.78;96828.98;107514;1270;41475;-78
2022/07/06 05:34:29;;;;;;;5.40;4.50;;;;;;;16.54;93.67;96829.61;107622;1270;35234;-78
2022/07/06 05:37:01;;;;;;;4.90;3.80;;;;;;;16.63;93.64;96833.02;107644;1268;33467;-78
2022/07/06 05:39:32;;;;;;;4.40;3.80;;;;;;;16.77;93.35;96826.59;107534;1265;93147;-78
2022/07/06 05:42:05;;;;;;;5.60;3.70;;;;;;;16.79;93.02;96827.16;107636;1268;33517;-78
2022/07/06 05:44:37;;;;;;;4.40;3.60;;;;;;;16.89;93.30;96827.95;107693;1268;31246;-78
2022/07/06 05:50:13;;;;;;;6.60;4.40;;;;;;;17.00;93.23;96832.06;107593;1268;36346;-77
2022/07/06 05:52:55;;;;;;;4.70;4.20;;;;;;;17.02;92.96;96836.39;107666;1268;42997;-77
2022/07/06 05:55:28;;;;;;;4.90;4.40;;;;;;;16.99;93.02;96841.14;107642;1268;32172;-77
2022/07/06 05:57:59;;;;;;;4.80;4.10;;;;;;;16.97;92.78;96838.52;107583;1270;31873;-78
2022/07/06 06:00:30;;;;;;;5.00;4.50;;;;;;;17.02;92.68;96838.33;107629;1268;37841;-78
2022/07/06 06:03:02;;;;;;;5.30;4.80;;;;;;;17.12;93.21;96846.33;107552;1268;51596;-78
2022/07/06 06:05:33;;;;;;;4.40;3.90;;;;;;;17.29;93.13;96847.52;107454;1270;42247;-77
2022/07/06 06:08:05;;;;;;;4.60;3.90;;;;;;;17.32;92.47;96850.02;107610;1270;37335;-77
2022/07/06 06:10:37;;;;;;;3.90;3.40;;;;;;;17.35;92.45;96848.10;107584;1270;33441;-78
2022/07/06 06:13:08;;;;;;;4.10;3.70;;;;;;;17.55;93.16;96849.08;107567;1270;40533;-78
2022/07/06 06:15:39;;;;;;;5.10;3.90;;;;;;;17.93;93.20;96854.52;107527;1270;41049;-78
2022/07/06 06:18:10;;;;;;;5.60;3.50;;;;;;;18.00;91.31;96853.08;107543;1270;52110;-78
2022/07/06 06:20:41;;;;;;;3.90;3.50;;;;;;;17.86;89.62;96852.64;107562;1270;31844;-78
2022/07/06 06:23:13;;;;;;;3.60;3.30;;;;;;;17.52;89.13;96856.89;107659;1268;32270;-77
2022/07/06 06:25:48;;;;;;;3.60;3.10;;;;;;;17.25;89.14;96856.39;107511;1268;53069;-79
2022/07/06 06:28:20;;;;;;;3.90;3.30;;;;;;;17.11;89.72;96861.58;107722;1268;29120;-77
2022/07/06 06:30:52;;;;;;;3.30;3.00;;;;;;;17.22;89.93;96865.52;107394;1268;35549;-77
2022/07/06 06:33:23;;;;;;;3.00;2.70;;;;;;;18.40;91.83;96864.47;107496;1268;30086;-78
2022/07/06 06:35:55;;;;;;;2.70;2.40;;;;;;;20.68;88.05;96854.23;107490;1268;40447;-79
2022/07/06 06:38:27;;;;;;;3.20;2.80;;;;;;;21.46;81.77;96859.27;107451;1269;46704;-78
2022/07/06 06:40:58;;;;;;;2.60;2.40;;;;;;;23.21;82.05;96858.95;107492;1268;32468;-78
2022/07/06 06:43:30;;;;;;;3.30;2.30;;;;;;;25.48;76.58;96855.42;107520;1268;37534;-79
2022/07/06 06:46:01;;;;;;;2.40;2.00;;;;;;;27.63;74.57;96859.71;107932;1270;36189;-80
2022/07/06 06:48:32;;;;;;;2.20;1.60;;;;;;;30.27;71.26;96855.34;107960;1268;73820;-80
2022/07/06 06:51:04;;;;;;;3.40;1.50;;;;;;;31.97;64.65;96855.02;107690;1268;121317;-80
2022/07/06 06:53:36;;;;;;;2.10;1.60;;;;;;;32.09;59.20;96863.23;107900;1268;81242;-79
2022/07/06 06:56:08;;;;;;;2.20;1.70;;;;;;;30.77;55.20;96864.55;107912;1270;65204;-80
2022/07/06 06:58:39;;;;;;;1.70;1.60;;;;;;;28.80;54.27;96870.21;108088;1268;40002;-80
2022/07/06 07:01:11;;;;;;;3.40;1.70;;;;;;;26.76;54.78;96867.10;108051;1268;36062;-80
2022/07/06 07:03:42;;;;;;;2.50;1.50;;;;;;;26.66;58.18;96868.02;107876;1266;37699;-81
2022/07/06 07:06:14;;;;;;;3.50;1.60;;;;;;;27.64;53.87;96866.65;107281;1268;124588;-83
2022/07/06 07:08:46;;;;;;;2.60;1.40;;;;;;;28.37;56.68;96858.15;107559;1268;101371;-81
2022/07/06 07:11:18;;;;;;;2.40;1.40;;;;;;;31.05;55.53;96857.54;107408;1268;117934;-82
2022/07/06 07:13:50;;;;;;;2.60;1.20;;;;;;;33.72;52.74;96854.55;107766;1268;76387;-82
2022/07/06 07:16:21;;;;;;;2.40;1.20;;;;;;;35.57;49.02;96854.77;107327;1268;191184;-82
2022/07/06 07:18:53;;;;;;;2.20;1.00;;;;;;;36.24;42.85;96852.42;106398;1270;1427974;-82
2022/07/06 07:21:24;;;;;;;2.00;1.80;;;;;;;35.35;42.26;96856.73;107449;1268;155485;-81
2022/07/06 07:23:56;;;;;;;1.80;1.50;;;;;;;33.96;38.11;96851.61;107243;1270;123092;-79
2022/07/06 07:26:27;;;;;;;3.90;1.80;;;;;;;31.28;40.05;96857.36;107313;1268;116932;-81
2022/07/06 07:28:58;;;;;;;2.80;1.60;;;;;;;30.17;42.11;96853.67;107399;1268;153064;-81
2022/07/06 07:31:30;;;;;;;3.00;1.80;;;;;;;30.14;44.45;96855.48;107396;1268;114419;-82
2022/07/06 07:34:01;;;;;;;3.80;1.80;;;;;;;29.80;42.34;96859.55;107462;1268;113555;-80
2022/07/06 07:36:32;;;;;;;2.40;2.20;;;;;;;27.59;43.16;96870.18;107484;1268;155520;-82
2022/07/06 07:39:03;;;;;;;2.70;2.20;;;;;;;24.83;47.03;96876.52;107523;1268;63344;-82
2022/07/06 07:41:35;;;;;;;3.00;1.90;;;;;;;25.87;51.03;96882.60;107619;1268;33603;-81
2022/07/06 07:44:07;;;;;;;4.40;1.90;;;;;;;29.20;47.93;96876.60;107553;1268;55335;-82
2022/07/06 07:46:38;;;;;;;1.80;1.60;;;;;;;31.34;44.91;96872.86;107551;1270;40441;-81
2022/07/06 07:49:10;;;;;;;1.90;1.60;;;;;;;33.49;43.52;96862.31;107343;1268;96243;-77
2022/07/06 07:51:43;;;;;;;2.00;1.70;;;;;;;33.63;38.60;96862.53;107496;1268;99863;-81
2022/07/06 07:54:16;;;;;;;2.10;1.70;;;;;;;33.06;40.02;96867.23;105218;1268;2052666;-82
2022/07/06 07:56:48;;;;;;;3.50;1.90;;;;;;;32.37;37.36;96863.89;107176;1268;301834;-81
2022/07/06 07:59:19;;;;;;;2.00;1.80;;;;;;;28.49;39.90;96864.90;107257;1268;264912;-76
2022/07/06 08:01:51;;;;;;;2.20;2.00;;;;;;;26.01;43.60;96867.14;105983;1268;1887680;-77
2022/07/06 08:04:24;;;;;;;2.50;2.10;;;;;;;24.28;47.03;96872.52;107063;1268;150168;-77
2022/07/06 08:06:56;;;;;;;3.30;2.70;;;;;;;23.31;48.96;96874.72;107026;1268;115722;-76
2022/07/06 08:09:28;;;;;;;3.10;2.80;;;;;;;22.51;50.49;96888.29;107029;1268;128729;-78
2022/07/06 08:11:59;;;;;;;2.90;2.30;;;;;;;23.71;52.77;96884.55;106755;1267;192155;-82
2022/07/06 08:14:32;;;;;;;3.60;2.30;;;;;;;27.28;49.48;96886.81;106805;1268;164411;-80
2022/07/06 08:17:06;;;;;;;2.10;1.80;;;;;;;29.52;45.86;96890.08;107202;1268;142685;-79
2022/07/06 08:19:38;;;;;;;2.90;2.00;;;;;;;30.12;42.14;96891.74;106750;1269;304144;-79
2022/07/06 08:22:11;;;;;;;2.30;2.10;;;;;;;28.28;42.15;96895.31;103296;1270;5106336;-82
2022/07/06 08:24:47;;;;;;;2.50;2.10;;;;;;;26.06;44.55;96904.33;106119;1268;1729050;-82
2022/07/06 08:27:32;;;;;;;;;;;;;;;;;;;;;
2022/07/06 08:30:20;;;;;;;2.90;2.10;;;;;;;24.76;48.20;96904.71;101993;1270;3467881;-80
2022/07/06 08:32:57;;;;;;;2.90;2.00;;;;;;;27.19;47.82;96899.20;106656;1268;1184220;-80
2022/07/06 08:35:31;;;;;;;2.50;2.10;;;;;;;29.94;44.13;96900.55;104983;1268;1837770;-80
2022/07/06 08:38:08;;;;;;;3.10;2.30;;;;;;;31.07;40.72;96911.36;107211;1269;123995;-81
2022/07/06 08:40:44;;;;;;;3.20;1.80;;;;;;;30.53;38.92;96901.02;107247;1270;146852;-81
2022/07/06 08:43:19;;;;;;;2.70;2.30;;;;;;;27.80;40.81;96904.48;105776;1268;2206644;-80
2022/07/06 08:45:57;;;;;;;4.00;2.00;;;;;;;26.92;43.64;96904.01;107338;1268;172967;-81
2022/07/06 08:48:33;;;;;;;3.00;2.00;;;;;;;27.66;45.11;96898.05;107327;1267;192941;-81
2022/07/06 08:51:09;;;;;;;2.20;2.00;;;;;;;30.44;43.91;96897.73;106284;1268;1529330;-81
2022/07/06 08:53:41;;;;;;;2.80;1.70;;;;;;;32.77;41.88;96889.63;107226;1268;146860;-82
2022/07/06 08:56:14;;;;;;;5.00;2.00;;;;;;;34.20;39.37;96888.81;107265;1268;192419;-81
2022/07/06 08:58:46;;;;;;;2.10;1.50;;;;;;;33.32;36.97;96887.99;105078;1268;1862328;-80
2022/07/06 09:01:19;;;;;;;2.60;2.10;;;;;;;30.57;37.51;96891.20;107189;1268;146731;-81
2022/07/06 09:03:54;;;;;;;2.20;2.00;;;;;;;28.43;40.27;96888.90;106544;1268;1336742;-79
2022/07/06 09:06:28;;;;;;;2.80;2.30;;;;;;;27.12;41.91;96890.23;103008;1268;2677255;-80
2022/07/06 09:09:00;;;;;;;3.80;2.20;;;;;;;26.06;42.66;96891.15;97568;1268;4317617;-80
2022/07/06 09:11:35;;;;;;;2.40;2.10;;;;;;;25.16;43.85;96892.63;107154;1268;223478;-80
2022/07/06 09:14:07;;;;;;;2.60;2.00;;;;;;;24.34;44.98;96887.20;107343;1270;143900;-80
2022/07/06 09:16:39;;;;;;;2.50;2.00;;;;;;;24.31;46.90;96877.02;106266;1270;1356452;-81
2022/07/06 09:19:16;;;;;;;2.90;2.50;;;;;;;24.34;47.00;96875.73;107454;1268;163170;-82
2022/07/06 09:21:49;;;;;;;4.80;2.40;;;;;;;23.78;48.46;96875.16;106161;1270;1502341;-82
2022/07/06 09:24:21;;;;;;;4.20;2.60;;;;;;;23.71;49.23;96877.05;107878;1268;102412;-80
2022/07/06 09:26:57;;;;;;;4.20;2.40;;;;;;;23.45;49.40;96885.45;107618;1268;139349;-82
2022/07/06 09:29:32;;;;;;;2.70;2.50;;;;;;;22.91;49.67;96892.13;107256;1268;114224;-79
2022/07/06 09:32:05;;;;;;;3.00;2.70;;;;;;;22.22;50.31;96899.05;107205;1268;163202;-81
2022/07/06 09:34:49;;;;;;;7.30;6.00;;;;;;;21.49;52.70;96913.12;107359;1268;153783;-81
2022/07/06 09:37:23;;;;;;;6.50;4.30;;;;;;;20.45;55.12;96920.17;107536;1268;106689;-80
2022/07/06 09:39:59;;;;;;;5.50;5.00;;;;;;;19.71;58.30;96916.52;107321;1268;155098;-80
2022/07/06 09:42:32;;;;;;;6.30;5.60;;;;;;;18.95;61.33;96930.13;107342;1268;108817;-82
2022/07/06 09:45:07;;;;;;;5.50;5.00;;;;;;;18.31;63.43;96931.20;107288;1268;148320;-82
2022/07/06 09:47:42;;;;;;;6.40;5.60;;;;;;;17.73;66.49;96933.98;107332;1270;185346;-84
2022/07/06 09:50:19;;;;;;;7.10;5.70;;;;;;;17.18;69.52;96934.23;106539;1268;1279793;-82
2022/07/06 09:52:58;;;;;;;7.50;5.30;;;;;;;16.88;71.71;96930.44;107535;1268;142433;-82
2022/07/06 09:55:31;;;;;;;10.30;7.30;;;;;;;16.66;74.00;96934.18;107503;1269;150574;-81
2022/07/06 09:58:03;;;;;;;7.80;7.00;;;;;;;16.59;75.14;96938.45;106279;1269;1544762;-82
2022/07/06 10:00:35;;;;;;;10.10;8.80;;;;;;;16.53;76.44;96943.91;107394;1268;196955;-81
2022/07/06 10:03:08;;;;;;;10.60;9.50;;;;;;;16.50;77.34;96945.08;107379;1270;112115;-82
2022/07/06 10:05:42;;;;;;;10.70;9.60;;;;;;;16.55;77.37;96952.07;107324;1270;130707;-84
2022/07/06 10:08:19;;;;;;;12.30;11.10;;;;;;;16.64;78.17;96956.06;107599;1267;49388;-83
2022/07/06 10:10:52;;;;;;;11.90;10.70;;;;;;;16.70;77.74;96960.26;107420;1270;94248;-80
2022/07/06 10:13:25;;;;;;;15.50;14.00;;;;;;;16.91;77.67;96959.65;106648;1268;1227793;-79
2022/07/06 10:16:00;;;;;;;18.40;16.60;;;;;;;17.18;77.33;96965.38;107390;1268;57259;-78
2022/07/06 10:18:31;;;;;;;20.10;18.10;;;;;;;17.31;76.80;96965.31;107456;1270;37350;-79
2022/07/06 10:21:06;;;;;;;18.60;16.70;;;;;;;17.50;76.87;96962.50;107425;1271;44165;-78
2022/07/06 10:23:39;;;;;;;19.30;17.30;;;;;;;17.65;76.40;96963.88;107474;1268;61232;-79
2022/07/06 10:26:13;;;;;;;19.30;16.90;;;;;;;17.73;76.26;96964.79;107326;1270;62088;-80
2022/07/06 10:28:46;;;;;;;19.80;17.80;;;;;;;17.81;76.28;96963.52;107547;1270;60727;-80
2022/07/06 10:31:21;;;;;;;20.20;18.20;;;;;;;17.80;76.53;96959.58;105334;1268;2491822;-79
2022/07/06 10:33:58;;;;;;;19.60;17.50;;;;;;;17.66;76.67;96957.48;105831;1270;2243510;-79
2022/07/06 10:36:30;;;;;;;18.00;16.20;;;;;;;17.54;77.68;96955.86;107441;1270;40281;-81
2022/07/06 10:41:02;;;;;;;18.30;16.40;;;;;;;17.47;77.72;96957.63;107400;1270;61405;-81
2022/07/06 10:41:53;;;;;;;19.00;17.20;;;;;;;17.58;77.78;96956.59;107562;1270;35978;-82
2022/07/06 10:44:26;;;;;;;20.60;18.60;;;;;;;17.85;78.45;96963.17;108044;1270;42612;-82
2022/07/06 10:46:59;;;;;;;20.30;18.30;;;;;;;18.20;78.59;96965.55;107407;1270;32993;-81
2022/07/06 10:49:31;;;;;;;16.90;15.30;;;;;;;18.27;77.90;96958.88;107761;1270;71716;-82
2022/07/06 10:52:02;;;;;;;18.10;16.30;;;;;;;18.44;77.93;96956.89;107990;1270;39121;-82
2022/07/06 10:54:41;;;;;;;16.40;14.70;;;;;;;18.51;77.38;96957.77;107544;1270;49982;-82
2022/07/06 10:57:15;;;;;;;16.00;14.40;;;;;;;18.65;77.28;96956.08;107910;1270;75800;-81
2022/07/06 11:00:04;;;;;;;15.60;14.20;;;;;;;18.88;77.56;96956.81;107735;1270;113141;-82
2022/07/06 11:02:42;;;;;;;15.30;13.70;;;;;;;19.09;77.36;96956.40;107441;1270;40086;-82
2022/07/06 11:05:35;;;;;;;13.90;12.10;;;;;;;19.44;77.06;96954.20;107428;1270;41143;-83
2022/07/06 11:08:09;;;;;;;13.20;11.80;;;;;;;19.50;74.11;96954.23;107790;1270;105031;-82
2022/07/06 11:10:51;;;;;;;12.30;11.10;;;;;;;19.52;73.40;96952.90;108019;1270;51859;-82
2022/07/06 11:13:31;;;;;;;12.30;11.10;;;;;;;19.61;73.07;96953.87;108086;1270;31333;-82
2022/07/06 11:16:05;;;;;;;13.10;11.30;;;;;;;19.75;72.67;96951.23;107861;1270;101147;-82
2022/07/06 11:18:46;;;;;;;11.20;10.10;;;;;;;19.99;73.40;96951.34;107914;1270;65508;-81
2022/07/06 11:21:22;;;;;;;11.20;10.20;;;;;;;20.28;72.27;96951.82;107967;1270;40442;-82
2022/07/06 11:23:54;;;;;;;10.30;9.10;;;;;;;20.53;72.91;96949.30;108074;1270;36955;-82
2022/07/06 11:26:28;;;;;;;9.80;8.30;;;;;;;20.62;70.79;96949.45;107702;1268;142409;-82
2022/07/06 11:29:02;;;;;;;8.90;8.00;;;;;;;20.74;70.31;96952.61;107950;1270;84656;-83
2022/07/06 11:31:37;;;;;;;9.40;7.80;;;;;;;20.57;67.35;96947.77;107996;1269;57479;-82
2022/07/06 11:34:11;;;;;;;9.40;8.40;;;;;;;20.27;67.53;96946.09;108065;1270;38286;-83
2022/07/06 11:36:44;;;;;;;8.00;7.30;;;;;;;20.21;68.15;96944.48;106189;1270;2077558;-83
2022/07/06 11:39:16;;;;;;;8.30;6.90;;;;;;;20.46;68.55;96943.06;105514;1268;2046489;-83
2022/07/06 11:41:48;;;;;;;6.80;6.10;;;;;;;20.71;67.16;96943.69;108008;1270;33719;-83
2022/07/06 11:44:20;;;;;;;6.20;5.60;;;;;;;20.89;66.00;96943.79;108081;1270;32603;-83
2022/07/06 11:46:52;;;;;;;7.00;5.60;;;;;;;21.00;65.02;96939.30;107771;1270;119798;-84
2022/07/06 11:49:24;;;;;;;6.10;5.50;;;;;;;21.10;64.69;96936.29;107513;1270;154841;-83